sensor_id;sensor_type;location;lat;lon;timestamp;P1;durP1;ratioP1;P2;durP2;ratioP2
10174;SDS011;18221;38.704;0.152;2023-08-20T00:13:14;7.95;;;7.15;;
10174;SDS011;18221;38.704;0.152;2023-08-20T00:15:42;7.32;;;6.60;;
10174;SDS011;18221;38.704;0.152;2023-08-20T00:18:11;8.75;;;6.90;;
10174;SDS011;18221;38.704;0.152;2023-08-20T00:20:41;7.03;;;6.32;;
10174;SDS011;18221;38.704;0.152;2023-08-20T00:23:11;7.00;;;6.40;;
10174;SDS011;18221;38.704;0.152;2023-08-20T00:25:40;7.40;;;6.22;;
10174;SDS011;18221;38.704;0.152;2023-08-20T00:28:10;7.90;;;6.47;;
10174;SDS011;18221;38.704;0.152;2023-08-20T00:30:40;7.47;;;6.43;;
10174;SDS011;18221;38.704;0.152;2023-08-20T00:33:08;6.78;;;6.13;;
10174;SDS011;18221;38.704;0.152;2023-08-20T00:35:37;8.82;;;6.40;;
10174;SDS011;18221;38.704;0.152;2023-08-20T00:38:05;8.13;;;7.00;;
10174;SDS011;18221;38.704;0.152;2023-08-20T00:40:33;8.75;;;6.53;;
10174;SDS011;18221;38.704;0.152;2023-08-20T00:43:01;8.77;;;7.50;;
10174;SDS011;18221;38.704;0.152;2023-08-20T00:45:30;8.20;;;6.88;;
10174;SDS011;18221;38.704;0.152;2023-08-20T00:48:00;7.55;;;6.57;;
10174;SDS011;18221;38.704;0.152;2023-08-20T00:50:30;9.80;;;6.97;;
10174;SDS011;18221;38.704;0.152;2023-08-20T00:52:59;8.93;;;6.60;;
10174;SDS011;18221;38.704;0.152;2023-08-20T00:55:28;7.35;;;6.57;;
10174;SDS011;18221;38.704;0.152;2023-08-20T00:57:57;9.88;;;6.57;;
10174;SDS011;18221;38.704;0.152;2023-08-20T01:00:26;9.10;;;7.00;;
10174;SDS011;18221;38.704;0.152;2023-08-20T01:02:54;8.82;;;7.15;;
10174;SDS011;18221;38.704;0.152;2023-08-20T01:05:24;7.85;;;7.05;;
10174;SDS011;18221;38.704;0.152;2023-08-20T01:08:11;8.68;;;7.38;;
10174;SDS011;18221;38.704;0.152;2023-08-20T01:10:55;7.82;;;7.03;;
10174;SDS011;18221;38.704;0.152;2023-08-20T01:13:30;7.80;;;7.05;;
10174;SDS011;18221;38.704;0.152;2023-08-20T01:15:58;8.02;;;7.00;;
10174;SDS011;18221;38.704;0.152;2023-08-20T01:18:26;10.90;;;6.80;;
10174;SDS011;18221;38.704;0.152;2023-08-20T01:20:58;8.15;;;6.82;;
10174;SDS011;18221;38.704;0.152;2023-08-20T01:26:35;7.20;;;6.32;;
10174;SDS011;18221;38.704;0.152;2023-08-20T01:29:28;8.82;;;6.78;;
10174;SDS011;18221;38.704;0.152;2023-08-20T01:31:57;7.47;;;6.57;;
10174;SDS011;18221;38.704;0.152;2023-08-20T01:34:27;7.70;;;6.88;;
10174;SDS011;18221;38.704;0.152;2023-08-20T01:36:56;8.90;;;7.57;;
10174;SDS011;18221;38.704;0.152;2023-08-20T01:39:26;7.78;;;7.07;;
10174;SDS011;18221;38.704;0.152;2023-08-20T01:41:54;7.38;;;6.57;;
10174;SDS011;18221;38.704;0.152;2023-08-20T01:44:22;8.48;;;6.82;;
10174;SDS011;18221;38.704;0.152;2023-08-20T01:46:52;9.13;;;6.80;;
10174;SDS011;18221;38.704;0.152;2023-08-20T01:49:21;9.82;;;6.93;;
10174;SDS011;18221;38.704;0.152;2023-08-20T01:51:49;8.77;;;7.03;;
10174;SDS011;18221;38.704;0.152;2023-08-20T01:54:17;7.82;;;6.93;;
10174;SDS011;18221;38.704;0.152;2023-08-20T01:56:45;9.93;;;6.93;;
10174;SDS011;18221;38.704;0.152;2023-08-20T01:59:13;7.72;;;6.90;;
10174;SDS011;18221;38.704;0.152;2023-08-20T02:01:42;8.45;;;7.53;;
10174;SDS011;18221;38.704;0.152;2023-08-20T02:04:11;8.82;;;7.45;;
10174;SDS011;18221;38.704;0.152;2023-08-20T02:06:39;9.52;;;7.35;;
10174;SDS011;18221;38.704;0.152;2023-08-20T02:09:08;10.30;;;7.28;;
10174;SDS011;18221;38.704;0.152;2023-08-20T02:11:36;9.25;;;7.90;;
10174;SDS011;18221;38.704;0.152;2023-08-20T02:14:04;8.18;;;7.47;;
10174;SDS011;18221;38.704;0.152;2023-08-20T02:16:32;7.97;;;7.28;;
10174;SDS011;18221;38.704;0.152;2023-08-20T02:19:00;8.48;;;7.40;;
10174;SDS011;18221;38.704;0.152;2023-08-20T02:21:32;10.23;;;7.95;;
10174;SDS011;18221;38.704;0.152;2023-08-20T02:24:01;8.43;;;7.53;;
10174;SDS011;18221;38.704;0.152;2023-08-20T02:26:29;8.40;;;7.60;;
10174;SDS011;18221;38.704;0.152;2023-08-20T02:28:57;10.65;;;7.43;;
10174;SDS011;18221;38.704;0.152;2023-08-20T02:31:26;7.88;;;7.18;;
10174;SDS011;18221;38.704;0.152;2023-08-20T02:33:54;8.00;;;7.30;;
10174;SDS011;18221;38.704;0.152;2023-08-20T02:36:22;8.43;;;7.63;;
10174;SDS011;18221;38.704;0.152;2023-08-20T02:38:52;8.50;;;7.70;;
10174;SDS011;18221;38.704;0.152;2023-08-20T02:41:20;7.43;;;6.80;;
10174;SDS011;18221;38.704;0.152;2023-08-20T02:43:49;8.70;;;7.90;;
10174;SDS011;18221;38.704;0.152;2023-08-20T02:46:17;9.10;;;7.68;;
10174;SDS011;18221;38.704;0.152;2023-08-20T02:48:45;8.18;;;7.38;;
10174;SDS011;18221;38.704;0.152;2023-08-20T02:51:13;7.90;;;7.10;;
10174;SDS011;18221;38.704;0.152;2023-08-20T02:53:41;8.05;;;7.25;;
10174;SDS011;18221;38.704;0.152;2023-08-20T02:56:11;7.47;;;6.78;;
10174;SDS011;18221;38.704;0.152;2023-08-20T02:58:40;8.52;;;7.55;;
10174;SDS011;18221;38.704;0.152;2023-08-20T03:01:17;8.13;;;7.30;;
10174;SDS011;18221;38.704;0.152;2023-08-20T03:03:47;9.00;;;7.40;;
10174;SDS011;18221;38.704;0.152;2023-08-20T03:06:15;8.18;;;7.35;;
10174;SDS011;18221;38.704;0.152;2023-08-20T03:08:43;8.68;;;7.72;;
10174;SDS011;18221;38.704;0.152;2023-08-20T03:11:14;9.38;;;7.13;;
10174;SDS011;18221;38.704;0.152;2023-08-20T03:13:42;7.68;;;6.95;;
10174;SDS011;18221;38.704;0.152;2023-08-20T03:16:12;7.63;;;6.63;;
10174;SDS011;18221;38.704;0.152;2023-08-20T03:18:40;7.22;;;6.40;;
10174;SDS011;18221;38.704;0.152;2023-08-20T03:21:08;7.93;;;7.13;;
10174;SDS011;18221;38.704;0.152;2023-08-20T03:23:36;7.07;;;6.38;;
10174;SDS011;18221;38.704;0.152;2023-08-20T03:26:05;7.53;;;6.82;;
10174;SDS011;18221;38.704;0.152;2023-08-20T03:28:34;7.90;;;6.97;;
10174;SDS011;18221;38.704;0.152;2023-08-20T03:31:03;7.72;;;6.93;;
10174;SDS011;18221;38.704;0.152;2023-08-20T03:33:31;9.07;;;7.00;;
10174;SDS011;18221;38.704;0.152;2023-08-20T03:35:59;7.15;;;6.53;;
10174;SDS011;18221;38.704;0.152;2023-08-20T03:38:28;7.82;;;6.88;;
10174;SDS011;18221;38.704;0.152;2023-08-20T03:40:56;8.27;;;7.03;;
10174;SDS011;18221;38.704;0.152;2023-08-20T03:43:24;7.30;;;6.60;;
10174;SDS011;18221;38.704;0.152;2023-08-20T03:45:54;8.30;;;6.95;;
10174;SDS011;18221;38.704;0.152;2023-08-20T03:48:22;7.03;;;6.40;;
10174;SDS011;18221;38.704;0.152;2023-08-20T03:50:50;6.88;;;6.22;;
10174;SDS011;18221;38.704;0.152;2023-08-20T03:53:18;9.43;;;7.18;;
10174;SDS011;18221;38.704;0.152;2023-08-20T03:55:47;7.55;;;6.65;;
10174;SDS011;18221;38.704;0.152;2023-08-20T03:58:15;7.00;;;6.25;;
10174;SDS011;18221;38.704;0.152;2023-08-20T04:00:44;8.57;;;6.95;;
10174;SDS011;18221;38.704;0.152;2023-08-20T04:03:16;7.75;;;6.82;;
10174;SDS011;18221;38.704;0.152;2023-08-20T04:05:45;7.25;;;6.55;;
10174;SDS011;18221;38.704;0.152;2023-08-20T04:08:13;7.85;;;7.00;;
10174;SDS011;18221;38.704;0.152;2023-08-20T04:10:44;8.02;;;7.28;;
10174;SDS011;18221;38.704;0.152;2023-08-20T04:13:12;7.95;;;6.38;;
10174;SDS011;18221;38.704;0.152;2023-08-20T04:15:41;7.85;;;7.13;;
10174;SDS011;18221;38.704;0.152;2023-08-20T04:18:09;8.48;;;6.50;;
10174;SDS011;18221;38.704;0.152;2023-08-20T04:20:39;6.90;;;6.18;;
10174;SDS011;18221;38.704;0.152;2023-08-20T04:23:07;7.43;;;6.70;;
10174;SDS011;18221;38.704;0.152;2023-08-20T04:25:35;8.00;;;6.20;;
10174;SDS011;18221;38.704;0.152;2023-08-20T04:28:03;8.05;;;6.55;;
10174;SDS011;18221;38.704;0.152;2023-08-20T04:30:32;8.70;;;6.35;;
10174;SDS011;18221;38.704;0.152;2023-08-20T04:33:02;7.50;;;6.80;;
10174;SDS011;18221;38.704;0.152;2023-08-20T04:35:31;7.20;;;6.60;;
10174;SDS011;18221;38.704;0.152;2023-08-20T04:38:02;8.02;;;6.82;;
10174;SDS011;18221;38.704;0.152;2023-08-20T04:40:30;8.02;;;7.22;;
10174;SDS011;18221;38.704;0.152;2023-08-20T04:42:58;9.23;;;7.32;;
10174;SDS011;18221;38.704;0.152;2023-08-20T04:45:26;7.45;;;6.75;;
10174;SDS011;18221;38.704;0.152;2023-08-20T04:47:54;8.77;;;6.57;;
10174;SDS011;18221;38.704;0.152;2023-08-20T04:50:22;8.23;;;7.43;;
10174;SDS011;18221;38.704;0.152;2023-08-20T04:52:51;7.35;;;6.63;;
10174;SDS011;18221;38.704;0.152;2023-08-20T04:55:21;7.10;;;6.40;;
10174;SDS011;18221;38.704;0.152;2023-08-20T04:57:50;9.27;;;6.68;;
10174;SDS011;18221;38.704;0.152;2023-08-20T05:00:18;7.53;;;6.53;;
10174;SDS011;18221;38.704;0.152;2023-08-20T05:02:47;7.97;;;7.25;;
10174;SDS011;18221;38.704;0.152;2023-08-20T05:05:15;7.82;;;7.10;;
10174;SDS011;18221;38.704;0.152;2023-08-20T05:07:43;7.55;;;6.93;;
10174;SDS011;18221;38.704;0.152;2023-08-20T05:10:11;7.80;;;6.80;;
10174;SDS011;18221;38.704;0.152;2023-08-20T05:12:41;7.85;;;6.72;;
10174;SDS011;18221;38.704;0.152;2023-08-20T05:15:09;7.40;;;6.70;;
10174;SDS011;18221;38.704;0.152;2023-08-20T05:17:37;7.22;;;6.53;;
10174;SDS011;18221;38.704;0.152;2023-08-20T05:20:06;7.55;;;6.85;;
10174;SDS011;18221;38.704;0.152;2023-08-20T05:22:35;8.55;;;7.50;;
10174;SDS011;18221;38.704;0.152;2023-08-20T05:25:04;8.60;;;7.70;;
10174;SDS011;18221;38.704;0.152;2023-08-20T05:27:32;7.78;;;6.97;;
10174;SDS011;18221;38.704;0.152;2023-08-20T05:30:02;7.72;;;7.03;;
10174;SDS011;18221;38.704;0.152;2023-08-20T05:32:33;8.05;;;7.22;;
10174;SDS011;18221;38.704;0.152;2023-08-20T05:35:02;7.47;;;6.78;;
10174;SDS011;18221;38.704;0.152;2023-08-20T05:37:31;8.50;;;7.03;;
10174;SDS011;18221;38.704;0.152;2023-08-20T05:39:59;8.10;;;7.13;;
10174;SDS011;18221;38.704;0.152;2023-08-20T05:42:28;8.25;;;7.45;;
10174;SDS011;18221;38.704;0.152;2023-08-20T05:44:58;7.38;;;6.68;;
10174;SDS011;18221;38.704;0.152;2023-08-20T05:47:28;8.55;;;7.65;;
10174;SDS011;18221;38.704;0.152;2023-08-20T05:49:56;7.38;;;6.68;;
10174;SDS011;18221;38.704;0.152;2023-08-20T05:52:24;8.10;;;7.38;;
10174;SDS011;18221;38.704;0.152;2023-08-20T05:54:53;9.85;;;7.93;;
10174;SDS011;18221;38.704;0.152;2023-08-20T05:57:21;7.88;;;7.18;;
10174;SDS011;18221;38.704;0.152;2023-08-20T05:59:49;9.13;;;7.68;;
10174;SDS011;18221;38.704;0.152;2023-08-20T06:02:17;9.02;;;7.15;;
10174;SDS011;18221;38.704;0.152;2023-08-20T06:04:47;9.73;;;7.40;;
10174;SDS011;18221;38.704;0.152;2023-08-20T06:07:16;8.20;;;7.40;;
10174;SDS011;18221;38.704;0.152;2023-08-20T06:09:44;7.90;;;7.13;;
10174;SDS011;18221;38.704;0.152;2023-08-20T06:12:14;8.27;;;7.45;;
10174;SDS011;18221;38.704;0.152;2023-08-20T06:14:42;8.85;;;7.95;;
10174;SDS011;18221;38.704;0.152;2023-08-20T06:17:10;8.98;;;7.65;;
10174;SDS011;18221;38.704;0.152;2023-08-20T06:19:38;9.65;;;7.80;;
10174;SDS011;18221;38.704;0.152;2023-08-20T06:22:08;8.60;;;7.72;;
10174;SDS011;18221;38.704;0.152;2023-08-20T06:24:36;8.43;;;7.45;;
10174;SDS011;18221;38.704;0.152;2023-08-20T06:27:04;8.10;;;7.20;;
10174;SDS011;18221;38.704;0.152;2023-08-20T06:29:32;8.60;;;7.78;;
10174;SDS011;18221;38.704;0.152;2023-08-20T06:32:00;9.95;;;8.23;;
10174;SDS011;18221;38.704;0.152;2023-08-20T06:34:29;9.00;;;7.90;;
10174;SDS011;18221;38.704;0.152;2023-08-20T06:36:57;10.52;;;7.90;;
10174;SDS011;18221;38.704;0.152;2023-08-20T06:39:27;10.32;;;7.85;;
10174;SDS011;18221;38.704;0.152;2023-08-20T06:41:55;8.70;;;7.97;;
10174;SDS011;18221;38.704;0.152;2023-08-20T06:44:23;9.38;;;7.90;;
10174;SDS011;18221;38.704;0.152;2023-08-20T06:46:51;8.93;;;8.02;;
10174;SDS011;18221;38.704;0.152;2023-08-20T06:49:20;8.63;;;7.82;;
10174;SDS011;18221;38.704;0.152;2023-08-20T06:51:48;9.45;;;8.35;;
10174;SDS011;18221;38.704;0.152;2023-08-20T06:54:16;8.80;;;7.90;;
10174;SDS011;18221;38.704;0.152;2023-08-20T06:56:46;8.98;;;7.05;;
10174;SDS011;18221;38.704;0.152;2023-08-20T06:59:14;8.52;;;7.63;;
10174;SDS011;18221;38.704;0.152;2023-08-20T07:01:44;8.77;;;7.95;;
10174;SDS011;18221;38.704;0.152;2023-08-20T07:04:12;9.13;;;8.23;;
10174;SDS011;18221;38.704;0.152;2023-08-20T07:06:40;9.63;;;8.00;;
10174;SDS011;18221;38.704;0.152;2023-08-20T07:09:09;7.90;;;7.20;;
10174;SDS011;18221;38.704;0.152;2023-08-20T07:11:37;8.05;;;7.25;;
10174;SDS011;18221;38.704;0.152;2023-08-20T07:14:06;9.18;;;7.63;;
10174;SDS011;18221;38.704;0.152;2023-08-20T07:16:35;7.88;;;7.18;;
10174;SDS011;18221;38.704;0.152;2023-08-20T07:19:03;8.82;;;7.97;;
10174;SDS011;18221;38.704;0.152;2023-08-20T07:21:31;8.50;;;7.47;;
10174;SDS011;18221;38.704;0.152;2023-08-20T07:24:00;7.93;;;6.88;;
10174;SDS011;18221;38.704;0.152;2023-08-20T07:26:28;8.18;;;7.13;;
10174;SDS011;18221;38.704;0.152;2023-08-20T07:28:57;7.13;;;6.43;;
10174;SDS011;18221;38.704;0.152;2023-08-20T07:31:27;7.45;;;6.70;;
10174;SDS011;18221;38.704;0.152;2023-08-20T07:33:57;7.65;;;6.88;;
10174;SDS011;18221;38.704;0.152;2023-08-20T07:36:28;7.82;;;7.13;;
10174;SDS011;18221;38.704;0.152;2023-08-20T07:38:56;7.80;;;7.05;;
10174;SDS011;18221;38.704;0.152;2023-08-20T07:41:28;7.60;;;6.90;;
10174;SDS011;18221;38.704;0.152;2023-08-20T07:43:56;7.38;;;6.22;;
10174;SDS011;18221;38.704;0.152;2023-08-20T07:46:25;7.15;;;5.80;;
10174;SDS011;18221;38.704;0.152;2023-08-20T07:48:54;6.82;;;5.43;;
10174;SDS011;18221;38.704;0.152;2023-08-20T07:51:25;6.03;;;4.60;;
10174;SDS011;18221;38.704;0.152;2023-08-20T07:53:56;4.90;;;4.50;;
10174;SDS011;18221;38.704;0.152;2023-08-20T07:56:25;5.70;;;4.63;;
10174;SDS011;18221;38.704;0.152;2023-08-20T07:58:55;4.53;;;4.13;;
10174;SDS011;18221;38.704;0.152;2023-08-20T08:01:23;4.95;;;4.30;;
10174;SDS011;18221;38.704;0.152;2023-08-20T08:03:52;5.78;;;4.32;;
10174;SDS011;18221;38.704;0.152;2023-08-20T08:06:21;5.38;;;3.97;;
10174;SDS011;18221;38.704;0.152;2023-08-20T08:08:49;5.32;;;3.78;;
10174;SDS011;18221;38.704;0.152;2023-08-20T08:11:17;4.93;;;4.32;;
10174;SDS011;18221;38.704;0.152;2023-08-20T08:13:45;6.03;;;4.63;;
10174;SDS011;18221;38.704;0.152;2023-08-20T08:16:13;4.97;;;4.47;;
10174;SDS011;18221;38.704;0.152;2023-08-20T08:18:42;5.75;;;4.35;;
10174;SDS011;18221;38.704;0.152;2023-08-20T08:21:12;5.38;;;4.70;;
10174;SDS011;18221;38.704;0.152;2023-08-20T08:23:40;4.60;;;4.30;;
10174;SDS011;18221;38.704;0.152;2023-08-20T08:26:08;5.55;;;5.05;;
10174;SDS011;18221;38.704;0.152;2023-08-20T08:28:36;6.25;;;5.40;;
10174;SDS011;18221;38.704;0.152;2023-08-20T08:31:04;5.82;;;5.32;;
10174;SDS011;18221;38.704;0.152;2023-08-20T08:33:33;7.13;;;5.38;;
10174;SDS011;18221;38.704;0.152;2023-08-20T08:36:01;8.63;;;5.38;;
10174;SDS011;18221;38.704;0.152;2023-08-20T08:38:31;8.82;;;5.20;;
10174;SDS011;18221;38.704;0.152;2023-08-20T08:40:59;5.82;;;4.85;;
10174;SDS011;18221;38.704;0.152;2023-08-20T08:43:29;6.13;;;5.57;;
10174;SDS011;18221;38.704;0.152;2023-08-20T08:45:58;7.72;;;5.35;;
10174;SDS011;18221;38.704;0.152;2023-08-20T08:48:31;6.50;;;5.70;;
10174;SDS011;18221;38.704;0.152;2023-08-20T08:51:01;8.18;;;5.15;;
10174;SDS011;18221;38.704;0.152;2023-08-20T08:53:31;5.43;;;4.88;;
10174;SDS011;18221;38.704;0.152;2023-08-20T08:56:01;5.85;;;5.25;;
10174;SDS011;18221;38.704;0.152;2023-08-20T08:58:30;8.50;;;5.15;;
10174;SDS011;18221;38.704;0.152;2023-08-20T09:00:59;6.13;;;5.53;;
10174;SDS011;18221;38.704;0.152;2023-08-20T09:03:28;5.45;;;4.95;;
10174;SDS011;18221;38.704;0.152;2023-08-20T09:05:57;6.40;;;5.05;;
10174;SDS011;18221;38.704;0.152;2023-08-20T09:08:29;5.80;;;5.25;;
10174;SDS011;18221;38.704;0.152;2023-08-20T09:11:00;5.65;;;5.03;;
10174;SDS011;18221;38.704;0.152;2023-08-20T09:13:32;5.75;;;5.15;;
10174;SDS011;18221;38.704;0.152;2023-08-20T09:16:05;6.03;;;5.53;;
10174;SDS011;18221;38.704;0.152;2023-08-20T09:18:37;7.95;;;5.20;;
10174;SDS011;18221;38.704;0.152;2023-08-20T09:21:07;6.57;;;5.38;;
10174;SDS011;18221;38.704;0.152;2023-08-20T09:23:37;5.80;;;5.00;;
10174;SDS011;18221;38.704;0.152;2023-08-20T09:26:09;6.80;;;5.30;;
10174;SDS011;18221;38.704;0.152;2023-08-20T09:28:42;5.90;;;5.30;;
10174;SDS011;18221;38.704;0.152;2023-08-20T09:31:12;5.57;;;5.00;;
10174;SDS011;18221;38.704;0.152;2023-08-20T09:33:50;7.30;;;5.20;;
10174;SDS011;18221;38.704;0.152;2023-08-20T09:36:28;6.55;;;5.07;;
10174;SDS011;18221;38.704;0.152;2023-08-20T09:38:59;6.35;;;5.75;;
10174;SDS011;18221;38.704;0.152;2023-08-20T09:41:32;8.23;;;5.38;;
10174;SDS011;18221;38.704;0.152;2023-08-20T09:44:04;6.30;;;5.70;;
10174;SDS011;18221;38.704;0.152;2023-08-20T09:46:35;7.15;;;5.47;;
10174;SDS011;18221;38.704;0.152;2023-08-20T09:49:05;5.55;;;5.00;;
10174;SDS011;18221;38.704;0.152;2023-08-20T09:51:37;6.13;;;5.35;;
10174;SDS011;18221;38.704;0.152;2023-08-20T09:54:10;8.38;;;5.68;;
10174;SDS011;18221;38.704;0.152;2023-08-20T09:56:46;6.82;;;5.40;;
10174;SDS011;18221;38.704;0.152;2023-08-20T09:59:26;6.38;;;5.22;;
10174;SDS011;18221;38.704;0.152;2023-08-20T10:01:55;8.75;;;5.35;;
10174;SDS011;18221;38.704;0.152;2023-08-20T10:04:24;7.72;;;5.28;;
10174;SDS011;18221;38.704;0.152;2023-08-20T10:06:53;7.78;;;5.13;;
10174;SDS011;18221;38.704;0.152;2023-08-20T10:09:23;6.30;;;5.32;;
10174;SDS011;18221;38.704;0.152;2023-08-20T10:11:53;5.90;;;5.35;;
10174;SDS011;18221;38.704;0.152;2023-08-20T10:14:22;7.65;;;5.38;;
10174;SDS011;18221;38.704;0.152;2023-08-20T10:16:50;7.55;;;4.85;;
10174;SDS011;18221;38.704;0.152;2023-08-20T10:19:21;7.43;;;5.57;;
10174;SDS011;18221;38.704;0.152;2023-08-20T10:21:52;6.50;;;5.28;;
10174;SDS011;18221;38.704;0.152;2023-08-20T10:24:25;5.68;;;5.03;;
10174;SDS011;18221;38.704;0.152;2023-08-20T10:27:06;6.15;;;5.55;;
10174;SDS011;18221;38.704;0.152;2023-08-20T10:29:43;6.10;;;5.15;;
10174;SDS011;18221;38.704;0.152;2023-08-20T10:32:13;5.60;;;4.88;;
10174;SDS011;18221;38.704;0.152;2023-08-20T10:34:49;5.30;;;4.85;;
10174;SDS011;18221;38.704;0.152;2023-08-20T10:37:25;5.95;;;4.50;;
10174;SDS011;18221;38.704;0.152;2023-08-20T10:39:56;5.93;;;5.30;;
10174;SDS011;18221;38.704;0.152;2023-08-20T10:42:26;6.40;;;5.00;;
10174;SDS011;18221;38.704;0.152;2023-08-20T10:44:58;5.80;;;4.80;;
10174;SDS011;18221;38.704;0.152;2023-08-20T10:47:41;5.88;;;5.20;;
10174;SDS011;18221;38.704;0.152;2023-08-20T10:50:11;6.35;;;5.05;;
10174;SDS011;18221;38.704;0.152;2023-08-20T10:52:49;5.47;;;4.82;;
10174;SDS011;18221;38.704;0.152;2023-08-20T10:55:26;7.00;;;4.82;;
10174;SDS011;18221;38.704;0.152;2023-08-20T10:57:55;6.45;;;5.10;;
10174;SDS011;18221;38.704;0.152;2023-08-20T11:00:24;5.75;;;5.03;;
10174;SDS011;18221;38.704;0.152;2023-08-20T11:02:55;5.93;;;5.18;;
10174;SDS011;18221;38.704;0.152;2023-08-20T11:05:28;6.28;;;4.93;;
10174;SDS011;18221;38.704;0.152;2023-08-20T11:08:01;5.28;;;4.78;;
10174;SDS011;18221;38.704;0.152;2023-08-20T11:10:34;6.68;;;4.78;;
10174;SDS011;18221;38.704;0.152;2023-08-20T11:13:03;5.50;;;5.05;;
10174;SDS011;18221;38.704;0.152;2023-08-20T11:15:32;5.03;;;4.53;;
10174;SDS011;18221;38.704;0.152;2023-08-20T11:18:02;5.20;;;4.70;;
10174;SDS011;18221;38.704;0.152;2023-08-20T11:20:32;6.65;;;4.90;;
10174;SDS011;18221;38.704;0.152;2023-08-20T11:23:01;5.63;;;5.03;;
10174;SDS011;18221;38.704;0.152;2023-08-20T11:25:29;5.50;;;5.00;;
10174;SDS011;18221;38.704;0.152;2023-08-20T11:27:59;5.00;;;4.50;;
10174;SDS011;18221;38.704;0.152;2023-08-20T11:30:30;5.28;;;4.72;;
10174;SDS011;18221;38.704;0.152;2023-08-20T11:33:05;5.22;;;4.72;;
10174;SDS011;18221;38.704;0.152;2023-08-20T11:35:34;6.35;;;5.05;;
10174;SDS011;18221;38.704;0.152;2023-08-20T11:38:07;7.05;;;4.80;;
10174;SDS011;18221;38.704;0.152;2023-08-20T11:40:37;5.18;;;4.68;;
10174;SDS011;18221;38.704;0.152;2023-08-20T11:43:07;5.10;;;4.70;;
10174;SDS011;18221;38.704;0.152;2023-08-20T11:45:44;5.50;;;4.78;;
10174;SDS011;18221;38.704;0.152;2023-08-20T11:48:14;4.70;;;4.30;;
10174;SDS011;18221;38.704;0.152;2023-08-20T11:50:43;5.95;;;4.70;;
10174;SDS011;18221;38.704;0.152;2023-08-20T11:53:12;5.25;;;4.50;;
10174;SDS011;18221;38.704;0.152;2023-08-20T11:55:40;6.32;;;4.78;;
10174;SDS011;18221;38.704;0.152;2023-08-20T11:58:12;6.40;;;4.80;;
10174;SDS011;18221;38.704;0.152;2023-08-20T12:00:41;7.82;;;5.20;;
10174;SDS011;18221;38.704;0.152;2023-08-20T12:03:09;8.20;;;4.93;;
10174;SDS011;18221;38.704;0.152;2023-08-20T12:05:40;5.57;;;4.50;;
10174;SDS011;18221;38.704;0.152;2023-08-20T12:08:14;5.45;;;4.85;;
10174;SDS011;18221;38.704;0.152;2023-08-20T12:10:45;5.95;;;5.03;;
10174;SDS011;18221;38.704;0.152;2023-08-20T12:13:15;5.50;;;5.00;;
10174;SDS011;18221;38.704;0.152;2023-08-20T12:15:44;7.07;;;4.70;;
10174;SDS011;18221;38.704;0.152;2023-08-20T12:18:14;5.70;;;4.88;;
10174;SDS011;18221;38.704;0.152;2023-08-20T12:20:44;5.47;;;4.68;;
10174;SDS011;18221;38.704;0.152;2023-08-20T12:23:16;4.75;;;4.45;;
10174;SDS011;18221;38.704;0.152;2023-08-20T12:25:49;5.82;;;4.55;;
10174;SDS011;18221;38.704;0.152;2023-08-20T12:28:21;7.32;;;5.53;;
10174;SDS011;18221;38.704;0.152;2023-08-20T12:30:51;5.40;;;4.90;;
10174;SDS011;18221;38.704;0.152;2023-08-20T12:33:24;5.63;;;5.00;;
10174;SDS011;18221;38.704;0.152;2023-08-20T12:35:57;6.38;;;4.82;;
10174;SDS011;18221;38.704;0.152;2023-08-20T12:38:28;5.25;;;4.75;;
10174;SDS011;18221;38.704;0.152;2023-08-20T12:40:59;5.95;;;5.45;;
10174;SDS011;18221;38.704;0.152;2023-08-20T12:43:47;6.32;;;4.88;;
10174;SDS011;18221;38.704;0.152;2023-08-20T12:46:16;5.05;;;4.65;;
10174;SDS011;18221;38.704;0.152;2023-08-20T12:48:45;5.57;;;4.82;;
10174;SDS011;18221;38.704;0.152;2023-08-20T12:51:13;7.10;;;5.28;;
10174;SDS011;18221;38.704;0.152;2023-08-20T12:53:42;5.13;;;4.72;;
10174;SDS011;18221;38.704;0.152;2023-08-20T12:56:11;5.78;;;5.18;;
10174;SDS011;18221;38.704;0.152;2023-08-20T12:58:41;5.57;;;5.03;;
10174;SDS011;18221;38.704;0.152;2023-08-20T13:01:14;8.50;;;5.32;;
10174;SDS011;18221;38.704;0.152;2023-08-20T13:03:49;5.53;;;4.78;;
10174;SDS011;18221;38.704;0.152;2023-08-20T13:06:18;6.32;;;5.28;;
10174;SDS011;18221;38.704;0.152;2023-08-20T13:08:51;6.72;;;5.10;;
10174;SDS011;18221;38.704;0.152;2023-08-20T13:11:23;6.25;;;5.63;;
10174;SDS011;18221;38.704;0.152;2023-08-20T13:13:56;6.07;;;5.55;;
10174;SDS011;18221;38.704;0.152;2023-08-20T13:16:40;7.07;;;6.22;;
10174;SDS011;18221;38.704;0.152;2023-08-20T13:19:10;5.95;;;5.38;;
10174;SDS011;18221;38.704;0.152;2023-08-20T13:21:39;5.90;;;5.40;;
10174;SDS011;18221;38.704;0.152;2023-08-20T13:24:11;6.38;;;5.57;;
10174;SDS011;18221;38.704;0.152;2023-08-20T13:26:40;6.03;;;5.43;;
10174;SDS011;18221;38.704;0.152;2023-08-20T13:29:08;6.47;;;5.30;;
10174;SDS011;18221;38.704;0.152;2023-08-20T13:31:38;6.38;;;5.57;;
10174;SDS011;18221;38.704;0.152;2023-08-20T13:34:07;6.20;;;5.60;;
10174;SDS011;18221;38.704;0.152;2023-08-20T13:36:35;7.07;;;5.35;;
10174;SDS011;18221;38.704;0.152;2023-08-20T13:39:03;8.00;;;5.75;;
10174;SDS011;18221;38.704;0.152;2023-08-20T13:41:32;7.07;;;5.40;;
10174;SDS011;18221;38.704;0.152;2023-08-20T13:44:00;6.93;;;5.07;;
10174;SDS011;18221;38.704;0.152;2023-08-20T13:46:29;6.82;;;4.90;;
10174;SDS011;18221;38.704;0.152;2023-08-20T13:49:00;6.18;;;5.57;;
10174;SDS011;18221;38.704;0.152;2023-08-20T13:51:31;5.97;;;5.40;;
10174;SDS011;18221;38.704;0.152;2023-08-20T13:54:02;5.70;;;5.10;;
10174;SDS011;18221;38.704;0.152;2023-08-20T13:56:31;5.88;;;5.03;;
10174;SDS011;18221;38.704;0.152;2023-08-20T13:59:00;4.93;;;4.18;;
10174;SDS011;18221;38.704;0.152;2023-08-20T14:01:28;6.28;;;4.82;;
10174;SDS011;18221;38.704;0.152;2023-08-20T14:03:56;5.75;;;4.85;;
10174;SDS011;18221;38.704;0.152;2023-08-20T14:06:26;5.35;;;4.32;;
10174;SDS011;18221;38.704;0.152;2023-08-20T14:08:55;6.03;;;4.60;;
10174;SDS011;18221;38.704;0.152;2023-08-20T14:11:23;5.85;;;4.57;;
10174;SDS011;18221;38.704;0.152;2023-08-20T14:13:51;4.70;;;4.10;;
10174;SDS011;18221;38.704;0.152;2023-08-20T14:16:19;4.38;;;3.95;;
10174;SDS011;18221;38.704;0.152;2023-08-20T14:18:48;5.32;;;4.82;;
10174;SDS011;18221;38.704;0.152;2023-08-20T14:21:18;4.75;;;4.35;;
10174;SDS011;18221;38.704;0.152;2023-08-20T14:23:48;4.57;;;4.18;;
10174;SDS011;18221;38.704;0.152;2023-08-20T14:26:19;4.13;;;3.83;;
10174;SDS011;18221;38.704;0.152;2023-08-20T14:28:48;5.22;;;4.20;;
10174;SDS011;18221;38.704;0.152;2023-08-20T14:31:17;5.25;;;4.30;;
10174;SDS011;18221;38.704;0.152;2023-08-20T14:33:47;4.45;;;3.88;;
10174;SDS011;18221;38.704;0.152;2023-08-20T14:36:15;4.20;;;3.80;;
10174;SDS011;18221;38.704;0.152;2023-08-20T14:38:44;5.65;;;4.28;;
10174;SDS011;18221;38.704;0.152;2023-08-20T14:41:14;4.38;;;3.97;;
10174;SDS011;18221;38.704;0.152;2023-08-20T14:43:42;5.72;;;4.07;;
10174;SDS011;18221;38.704;0.152;2023-08-20T14:46:13;5.13;;;4.00;;
10174;SDS011;18221;38.704;0.152;2023-08-20T14:48:41;4.63;;;4.15;;
10174;SDS011;18221;38.704;0.152;2023-08-20T14:51:10;4.95;;;3.85;;
10174;SDS011;18221;38.704;0.152;2023-08-20T14:53:38;4.15;;;3.83;;
10174;SDS011;18221;38.704;0.152;2023-08-20T14:56:06;4.28;;;3.85;;
10174;SDS011;18221;38.704;0.152;2023-08-20T14:58:36;4.70;;;3.95;;
10174;SDS011;18221;38.704;0.152;2023-08-20T15:01:05;4.50;;;3.97;;
10174;SDS011;18221;38.704;0.152;2023-08-20T15:03:33;6.95;;;4.20;;
10174;SDS011;18221;38.704;0.152;2023-08-20T15:06:02;4.68;;;4.10;;
10174;SDS011;18221;38.704;0.152;2023-08-20T15:08:30;6.15;;;3.92;;
10174;SDS011;18221;38.704;0.152;2023-08-20T15:10:59;4.28;;;3.88;;
10174;SDS011;18221;38.704;0.152;2023-08-20T15:13:28;6.03;;;4.20;;
10174;SDS011;18221;38.704;0.152;2023-08-20T15:15:59;4.97;;;4.15;;
10174;SDS011;18221;38.704;0.152;2023-08-20T15:18:28;6.43;;;4.32;;